Météo aviation pour un terrain ou une ville
Choisir un ou une

Vous pouvez entrer RAPIDEMENT les premières lettres pour sélectionner

Aéroport choisi : LFCK - CASTRES - MAZAMET
Visibilité




Soleil : Lever à 06:25 Coucher à 21:27
Durée du jour : 15h 2 (-2 minute(s))
Date et heure locale 12/07/2020 05:51
Il fait nuit
Distance Terre - Lune : 403926 kms

Phase actuelle: Dernier quartier
Température
Pression
Humidité
Force du vent
Direction du vent
Temps présent
Ciel Clair

Ensoleillement : 100 %
Heure d'observation : 2020/07/12 05:30. Soit il y a 0 H 21 mn
Décodage METAR, TAF et désign par Philippe Guiraud
METAR : 2020/07/12 03:30 LFCK 120330Z AUTO 10002KT CAVOK 14/12 Q1020
Prévisions (décodage des TAF)
Pas de prévisions (TAF) pour cette station
Historique pour les derniéres 24 heures
Carte satellite actuelle
Satellite Image